Terminal Aerodrome Forecast
Issued by NWS Riverton, WY

Home | Current Version | Previous Version | Text Only | Print | Product List | Glossary On
Versions: 1 2 3 4 5 6 7 8 9 10 11 12 13
000
FTUS45 KRIW 260527
TAFRIW
TAF
KRIW 260527Z 2606/2706 VRB05KT P6SM OVC070
     FM261700 10006KT P6SM OVC080
     FM262300 36010KT P6SM VCSH SCT060 OVC080
     FM270300 01009KT P6SM OVC080=

USA.gov is the U.S. government's official web portal to all federal, state and local government web resources and services.